Time;durP1;ratioP1;P1;durP2;ratioP2;P2;SDS_P1;SDS_P2;PMS_P1;PMS_P2;Temp;Humidity;BMP_temperature;BMP_pressure;BME280_temperature;BME280_humidity;BME280_pressure;Samples;Min_cycle;Max_cycle;Signal;HPM_P1;HPM_P2
2024/01/24 00:00:00;;;;;;;;;0.00;0.00;;;;;14.23;84.00;101765.19;5120761;27;45585;-84
2024/01/24 00:02:25;;;;;;;;;0.00;0.00;;;;;14.25;83.56;101785.56;5133740;27;46188;-85
2024/01/24 00:04:50;;;;;;;;;0.00;0.00;;;;;14.31;83.69;101773.66;5122489;27;45343;-85
2024/01/24 00:07:16;;;;;;;;;0.00;0.00;;;;;14.32;83.16;101796.81;5120731;27;45432;-85
2024/01/24 00:09:42;;;;;;;;;0.00;0.00;;;;;14.28;83.24;101779.19;5120917;27;45499;-84
2024/01/24 00:12:07;;;;;;;;;0.00;0.00;;;;;14.29;82.89;101771.09;5118753;27;46003;-85
2024/01/24 00:14:33;;;;;;;;;0.00;0.00;;;;;14.28;82.56;101776.50;5119751;27;45512;-85
2024/01/24 00:16:58;;;;;;;;;0.00;0.00;;;;;14.29;82.72;101786.28;5119809;27;45887;-85
2024/01/24 00:19:23;;;;;;;;;0.00;0.00;;;;;14.33;82.43;101782.50;5120488;27;45718;-88
2024/01/24 00:21:49;;;;;;;;;0.00;0.00;;;;;14.32;82.13;101786.09;5120028;27;45398;-83
2024/01/24 00:24:14;;;;;;;;;0.00;0.00;;;;;14.29;82.11;101767.53;5119797;27;45241;-86
2024/01/24 00:26:39;;;;;;;;;0.00;0.00;;;;;14.28;81.91;101768.50;5119065;27;45247;-86
2024/01/24 00:29:05;;;;;;;;;0.00;0.00;;;;;14.30;82.46;101761.25;5119746;27;45340;-85
2024/01/24 00:31:30;;;;;;;;;0.00;0.00;;;;;14.33;82.38;101777.16;5119760;27;45353;-84
2024/01/24 00:33:55;;;;;;;;;0.00;0.00;;;;;14.22;82.42;101748.28;5118837;27;55316;-83
2024/01/24 00:36:22;;;;;;;;;0.00;0.00;;;;;14.32;82.26;101781.66;5119682;27;45343;-84
2024/01/24 00:38:47;;;;;;;;;0.00;0.00;;;;;14.33;82.08;101766.47;5119591;27;45325;-82
2024/01/24 00:41:12;;;;;;;;;0.00;0.00;;;;;14.30;82.17;101764.78;5119217;27;46099;-84
2024/01/24 00:43:38;;;;;;;;;0.00;0.00;;;;;14.38;82.12;101775.94;5118654;27;45319;-84
2024/01/24 00:46:03;;;;;;;;;1.00;1.00;;;;;14.29;82.75;101772.88;5119543;27;55469;-85
2024/01/24 00:48:28;;;;;;;;;0.00;0.00;;;;;14.38;82.14;101785.78;5119659;27;45238;-88
2024/01/24 00:50:54;;;;;;;;;0.00;0.00;;;;;14.31;82.48;101776.34;5118327;27;47527;-86
2024/01/24 00:53:20;;;;;;;;;0.00;0.00;;;;;14.36;82.36;101793.03;5118357;27;45442;-85
2024/01/24 00:55:46;;;;;;;;;0.00;0.00;;;;;14.41;82.28;101801.69;5118118;27;45332;-85
2024/01/24 00:58:11;;;;;;;;;0.00;0.00;;;;;14.33;82.85;101788.72;5119484;27;45321;-84
2024/01/24 01:00:37;;;;;;;;;0.00;0.00;;;;;14.37;82.50;101789.41;5117992;27;45374;-82
2024/01/24 01:03:03;;;;;;;;;0.00;0.00;;;;;14.40;82.69;101791.94;5102860;27;45540;-84
2024/01/24 01:05:28;;;;;;;;;0.00;0.00;;;;;14.44;82.63;101801.53;5118698;27;45439;-83
2024/01/24 01:07:53;;;;;;;;;0.00;0.00;;;;;14.31;82.91;101765.63;5117617;27;54145;-83
2024/01/24 01:10:19;;;;;;;;;0.00;0.00;;;;;14.44;83.53;101807.75;5116205;27;65197;-86
2024/01/24 01:12:44;;;;;;;;;0.00;0.00;;;;;14.41;83.56;101799.00;5118950;27;45491;-86
2024/01/24 01:15:09;;;;;;;;;0.00;0.00;;;;;14.36;83.67;101782.34;5118977;27;45318;-83
2024/01/24 01:17:35;;;;;;;;;0.00;0.00;;;;;14.46;84.06;101818.41;5119703;27;45233;-85
2024/01/24 01:20:00;;;;;;;;;0.00;0.00;;;;;14.43;84.12;101794.44;5120086;27;53591;-84
2024/01/24 01:22:26;;;;;;;;;0.00;0.00;;;;;14.41;84.22;101797.19;5137765;27;45301;-85
2024/01/24 01:24:51;;;;;;;;;0.00;0.00;;;;;14.43;84.98;101805.13;5140153;27;45324;-83
2024/01/24 01:27:17;;;;;;;;;0.00;0.00;;;;;14.36;85.80;101782.34;5145165;27;49656;-84
2024/01/24 01:29:42;;;;;;;;;0.00;0.00;;;;;14.33;87.49;101790.53;5161712;27;45124;-84
2024/01/24 01:32:07;;;;;;;;;0.00;0.00;;;;;14.29;87.20;101778.25;5122923;27;45217;-83
2024/01/24 01:34:33;;;;;;;;;0.00;0.00;;;;;14.24;87.11;101772.28;5117686;27;45270;-85
2024/01/24 01:36:58;;;;;;;;;0.00;0.00;;;;;14.17;87.63;101772.59;5099291;27;45372;-83
2024/01/24 01:39:24;;;;;;;;;0.00;0.00;;;;;14.15;87.52;101779.84;5117222;27;52147;-81
2024/01/24 01:41:49;;;;;;;;;0.00;0.00;;;;;14.01;87.64;101749.41;5117201;27;45413;-83
2024/01/24 01:44:15;;;;;;;;;0.00;0.00;;;;;14.09;87.88;101780.16;5117403;27;45378;-84
2024/01/24 01:46:42;;;;;;;;;0.00;0.00;;;;;13.94;87.91;101775.63;5118076;27;45591;-84
2024/01/24 01:49:09;;;;;;;;;0.00;0.00;;;;;13.96;88.85;101781.75;5117081;27;46504;-86
2024/01/24 01:51:35;;;;;;;;;0.00;0.00;;;;;13.97;88.74;101804.00;5118175;27;45714;-84
2024/01/24 01:54:00;;;;;;;;;0.00;0.00;;;;;14.04;88.59;101797.38;5100859;27;45281;-82
2024/01/24 01:56:27;;;;;;;;;0.00;0.00;;;;;13.95;88.38;101798.75;5118217;27;45426;-84
2024/01/24 01:58:52;;;;;;;;;0.00;0.00;;;;;13.91;88.76;101774.88;5117506;27;45504;-84
2024/01/24 02:01:19;;;;;;;;;0.00;0.00;;;;;14.00;88.11;101802.03;5118226;27;45279;-85
2024/01/24 02:03:45;;;;;;;;;0.00;0.00;;;;;13.91;88.76;101781.09;5119317;27;45572;-83
2024/01/24 02:06:11;;;;;;;;;0.00;0.00;;;;;13.97;88.99;101804.88;5118811;27;45488;-85
2024/01/24 02:08:36;;;;;;;;;0.00;0.00;;;;;13.98;88.63;101792.34;5117725;27;45553;-81
2024/01/24 02:11:02;;;;;;;;;0.00;0.00;;;;;13.96;89.00;101788.91;5115863;27;45402;-83
2024/01/24 02:13:31;;;;;;;;;0.00;0.00;;;;;13.94;88.93;101788.13;5117967;27;45388;-84
2024/01/24 02:16:01;;;;;;;;;0.67;0.00;;;;;13.90;89.09;101783.84;5117118;27;45385;-83
2024/01/24 02:18:27;;;;;;;;;0.00;0.00;;;;;13.94;88.96;101780.09;5116987;27;46028;-83
2024/01/24 02:20:52;;;;;;;;;0.00;0.00;;;;;13.92;88.76;101785.50;5125239;27;45580;-84
2024/01/24 02:23:19;;;;;;;;;1.00;0.00;;;;;13.89;88.91;101793.69;5123891;27;47379;-83
2024/01/24 02:25:44;;;;;;;;;0.00;0.00;;;;;13.87;88.54;101783.06;5099019;27;45313;-84
2024/01/24 02:28:09;;;;;;;;;0.00;0.00;;;;;13.92;88.70;101798.88;5117170;27;46324;-84
2024/01/24 02:30:35;;;;;;;;;0.00;0.00;;;;;13.91;89.03;101807.84;5116237;27;61270;-83
2024/01/24 02:33:00;;;;;;;;;0.00;0.00;;;;;13.84;89.13;101780.56;5117077;27;45236;-83
2024/01/24 02:35:27;;;;;;;;;0.00;0.00;;;;;13.86;89.06;101776.00;5117058;27;45361;-84
2024/01/24 02:37:53;;;;;;;;;0.00;0.00;;;;;13.97;89.02;101780.78;5116934;27;45372;-83
2024/01/24 02:40:18;;;;;;;;;0.00;0.00;;;;;13.95;88.78;101793.38;5099684;27;45318;-83
2024/01/24 02:42:46;;;;;;;;;0.00;0.00;;;;;13.93;89.01;101795.25;5117709;27;46532;-84
2024/01/24 02:45:12;;;;;;;;;0.00;0.00;;;;;13.94;89.07;101791.66;5118491;27;45556;-87
2024/01/24 02:47:37;;;;;;;;;0.00;0.00;;;;;13.98;88.83;101793.22;5118420;27;49298;-88
2024/01/24 02:50:04;;;;;;;;;0.00;0.00;;;;;13.82;88.49;101768.22;5119627;27;53058;-85
2024/01/24 02:52:29;;;;;;;;;0.00;0.00;;;;;13.89;88.58;101772.28;5141168;27;45445;-84
2024/01/24 02:54:55;;;;;;;;;0.00;0.00;;;;;14.03;88.27;101790.31;5142657;27;45310;-86
2024/01/24 02:57:21;;;;;;;;;0.00;0.00;;;;;13.98;87.90;101779.84;5137251;27;46108;-84
2024/01/24 02:59:46;;;;;;;;;0.00;0.00;;;;;14.04;88.24;101792.88;5130124;27;44711;-82
2024/01/24 03:02:11;;;;;;;;;0.00;0.00;;;;;14.04;87.56;101787.53;5130006;27;45349;-85
2024/01/24 03:04:37;;;;;;;;;0.00;0.00;;;;;14.04;87.83;101792.03;5137053;27;45229;-84
2024/01/24 03:07:02;;;;;;;;;0.00;0.00;;;;;14.06;87.22;101798.16;5124958;27;45337;-84
2024/01/24 03:09:28;;;;;;;;;0.00;0.00;;;;;13.92;87.07;101782.81;5122987;27;45295;-86
2024/01/24 03:11:53;;;;;;;;;0.00;0.00;;;;;14.07;87.37;101787.41;5120815;27;59976;-86
2024/01/24 03:14:18;;;;;;;;;0.00;0.00;;;;;14.02;87.37;101794.78;5121861;27;45246;-85
2024/01/24 03:16:44;;;;;;;;;0.00;0.00;;;;;14.03;87.24;101791.16;5121590;27;45650;-85
2024/01/24 03:19:10;;;;;;;;;0.00;0.00;;;;;14.10;87.08;101814.00;5121765;27;45501;-85
2024/01/24 03:21:35;;;;;;;;;0.00;0.00;;;;;14.02;86.76;101793.91;5119883;27;45441;-85
2024/01/24 03:24:00;;;;;;;;;0.00;0.00;;;;;14.14;86.07;101804.84;5120384;27;45593;-85
2024/01/24 03:26:25;;;;;;;;;0.00;0.00;;;;;14.08;86.16;101789.13;5120127;27;57169;-86
2024/01/24 03:28:51;;;;;;;;;0.00;0.00;;;;;14.03;86.23;101767.09;5120823;27;45328;-84
2024/01/24 03:31:16;;;;;;;;;0.00;0.00;;;;;14.17;85.79;101802.00;5118768;27;61367;-86
2024/01/24 03:33:42;;;;;;;;;0.00;0.00;;;;;14.14;85.87;101794.16;5121006;27;45306;-89
2024/01/24 03:36:07;;;;;;;;;0.00;0.00;;;;;14.03;85.41;101769.75;5121152;27;45362;-86
2024/01/24 03:38:34;;;;;;;;;0.00;0.00;;;;;14.22;85.63;101798.25;5120365;27;45336;-86
2024/01/24 03:40:59;;;;;;;;;0.00;0.00;;;;;14.24;85.41;101791.00;5121480;27;45466;-86
2024/01/24 03:43:25;;;;;;;;;0.00;0.00;;;;;14.25;85.55;101790.06;5124501;27;45500;-82
2024/01/24 03:45:50;;;;;;;;;0.00;0.00;;;;;14.17;85.00;101771.72;5125506;27;46063;-86
2024/01/24 03:48:15;;;;;;;;;0.00;0.00;;;;;14.26;84.86;101781.09;5122509;27;45224;-85
2024/01/24 03:50:41;;;;;;;;;0.00;0.00;;;;;14.18;84.68;101774.31;5120387;27;45164;-84
2024/01/24 03:53:06;;;;;;;;;0.00;0.00;;;;;14.22;84.71;101779.53;5121554;27;45309;-86
2024/01/24 03:55:32;;;;;;;;;0.00;0.00;;;;;14.28;84.81;101790.75;5120663;27;45325;-84
2024/01/24 03:57:57;;;;;;;;;0.00;0.00;;;;;14.25;84.39;101774.00;5122465;27;45251;-84
2024/01/24 04:00:24;;;;;;;;;0.00;0.00;;;;;14.32;84.86;101780.75;5125381;27;45286;-84
2024/01/24 04:02:49;;;;;;;;;0.00;0.00;;;;;14.31;84.31;101773.66;5123390;27;45533;-87
2024/01/24 04:05:16;;;;;;;;;0.00;0.00;;;;;14.30;84.03;101763.91;5119608;27;45502;-84
2024/01/24 04:07:41;;;;;;;;;0.00;0.00;;;;;14.32;84.34;101775.41;5118741;27;45298;-83
2024/01/24 04:10:07;;;;;;;;;0.00;0.00;;;;;14.31;84.66;101784.38;5119651;27;45499;-84
2024/01/24 04:12:32;;;;;;;;;0.00;0.00;;;;;14.31;84.33;101781.69;5120947;27;45310;-84
2024/01/24 04:14:58;;;;;;;;;0.00;0.00;;;;;14.30;83.84;101777.28;5120117;27;52805;-84
2024/01/24 04:17:23;;;;;;;;;0.00;0.00;;;;;14.36;84.08;101787.69;5119512;27;60772;-83
2024/01/24 04:19:49;;;;;;;;;0.00;0.00;;;;;14.38;84.42;101799.19;5118418;27;45474;-85
2024/01/24 04:22:15;;;;;;;;;0.00;0.00;;;;;14.29;84.42;101780.91;5102366;27;45361;-84
2024/01/24 04:24:41;;;;;;;;;0.00;0.00;;;;;14.29;84.01;101780.91;5119603;27;45234;-87
2024/01/24 04:27:07;;;;;;;;;0.00;0.00;;;;;14.40;83.37;101797.28;5120123;27;45227;-86
2024/01/24 04:29:32;;;;;;;;;0.00;0.00;;;;;14.44;83.45;101806.91;5120769;27;45788;-88
2024/01/24 04:31:57;;;;;;;;;0.00;0.00;;;;;14.30;83.51;101783.50;5122009;27;45129;-88
2024/01/24 04:34:23;;;;;;;;;0.00;0.00;;;;;14.41;83.20;101802.56;5122592;27;45590;-83
2024/01/24 04:36:48;;;;;;;;;0.00;0.00;;;;;14.39;83.15;101808.94;5119587;27;45329;-86
2024/01/24 04:39:13;;;;;;;;;0.00;0.00;;;;;14.38;83.01;101813.41;5119216;27;52437;-84
2024/01/24 04:41:39;;;;;;;;;1.00;0.00;;;;;14.40;83.26;101806.19;5138538;27;49068;-86
2024/01/24 04:44:04;;;;;;;;;0.00;0.00;;;;;14.41;82.91;101813.25;5140470;27;45927;-85
2024/01/24 04:46:30;;;;;;;;;0.00;0.00;;;;;14.46;83.09;101829.13;5141137;27;45423;-85
2024/01/24 04:48:55;;;;;;;;;0.00;0.00;;;;;14.49;83.04;101837.00;5142028;27;45437;-87
2024/01/24 04:51:21;;;;;;;;;0.00;0.00;;;;;14.56;82.86;101857.13;5120464;27;45297;-84
2024/01/24 04:53:47;;;;;;;;;0.00;0.00;;;;;14.51;83.32;101851.16;5119434;27;45576;-86
2024/01/24 04:56:12;;;;;;;;;0.00;0.00;;;;;14.44;83.61;101841.69;5100617;27;45360;-84
2024/01/24 04:58:40;;;;;;;;;0.00;0.00;;;;;14.61;83.71;101868.47;5126546;27;45480;-87
2024/01/24 05:01:05;;;;;;;;;0.00;0.00;;;;;14.37;83.45;101834.91;5101874;27;45244;-88
2024/01/24 05:03:30;;;;;;;;;0.00;0.00;;;;;14.37;84.10;101821.53;5119158;27;47201;-89
2024/01/24 05:05:56;;;;;;;;;0.00;0.00;;;;;14.57;84.64;101866.88;5122839;27;45286;-89
2024/01/24 05:08:21;;;;;;;;;0.00;0.00;;;;;14.50;84.43;101860.13;5122702;27;45404;-85
2024/01/24 05:10:46;;;;;;;;;0.00;0.00;;;;;14.55;84.25;101879.47;5127612;27;45493;-87
2024/01/24 05:13:12;;;;;;;;;0.00;0.00;;;;;14.56;84.44;101881.22;5125649;27;45602;-90
2024/01/24 05:15:37;;;;;;;;;0.00;0.00;;;;;14.56;84.64;101873.19;5109727;27;45425;-84
2024/01/24 05:18:03;;;;;;;;;0.00;0.00;;;;;14.57;84.44;101890.97;5122025;27;47746;-83
2024/01/24 05:20:28;;;;;;;;;0.00;0.00;;;;;14.56;84.60;101902.63;5121268;27;45394;-85
2024/01/24 05:22:54;;;;;;;;;0.00;0.00;;;;;14.41;84.91;101861.44;5117930;27;45869;-83
2024/01/24 05:25:19;;;;;;;;;0.00;0.00;;;;;14.51;85.20;101887.75;5121069;27;45431;-86
2024/01/24 05:27:45;;;;;;;;;0.00;0.00;;;;;14.44;84.93;101873.81;5126164;27;45539;-86
2024/01/24 05:30:10;;;;;;;;;0.00;0.00;;;;;14.48;84.96;101878.09;5129694;27;45494;-85
2024/01/24 05:32:36;;;;;;;;;0.00;0.00;;;;;14.54;85.29;101896.50;5130764;27;45901;-85
2024/01/24 05:35:01;;;;;;;;;1.00;0.00;;;;;14.53;85.73;101897.44;5123717;27;46169;-85
2024/01/24 05:37:27;;;;;;;;;0.00;0.00;;;;;14.46;86.35;101898.72;5133027;27;45423;-86
2024/01/24 05:39:52;;;;;;;;;0.00;0.00;;;;;14.52;86.39;101922.47;5120075;27;45405;-85
2024/01/24 05:42:18;;;;;;;;;0.00;0.00;;;;;14.42;86.32;101913.16;5132901;27;45972;-85
2024/01/24 05:44:44;;;;;;;;;1.00;0.00;;;;;14.47;86.57;101919.19;5117759;27;45828;-85
2024/01/24 05:47:09;;;;;;;;;0.00;0.00;;;;;14.51;86.29;101931.47;5118295;27;55810;-85
2024/01/24 05:49:36;;;;;;;;;0.00;0.00;;;;;14.50;86.71;101945.78;5125824;27;45515;-85
2024/01/24 05:52:05;;;;;;;;;0.33;0.00;;;;;14.51;86.18;101952.88;5117928;27;45368;-85
2024/01/24 05:54:31;;;;;;;;;1.00;0.00;;;;;14.55;86.93;101973.19;5117975;27;45370;-84
2024/01/24 05:56:57;;;;;;;;;0.00;0.00;;;;;14.40;88.08;101971.25;5118921;27;45613;-86
2024/01/24 05:59:23;;;;;;;;;0.67;0.00;;;;;14.38;91.01;101994.56;5108838;27;45834;-87
2024/01/24 06:01:49;;;;;;;;;0.33;0.33;;;;;14.22;92.93;101994.44;5120656;27;45946;-84
2024/01/24 06:04:14;;;;;;;;;0.00;0.00;;;;;14.00;95.00;102004.44;5122527;27;45461;-85
2024/01/24 06:06:40;;;;;;;;;0.00;0.00;;;;;13.98;95.77;102001.84;5117519;27;45251;-84
2024/01/24 06:09:06;;;;;;;;;0.00;0.00;;;;;13.85;97.68;102001.56;5116685;27;45576;-84
2024/01/24 06:11:31;;;;;;;;;0.00;0.00;;;;;13.81;98.52;102002.66;5136272;27;45202;-84
2024/01/24 06:13:56;;;;;;;;;0.00;0.00;;;;;13.81;98.62;102021.38;5137528;27;45320;-86
2024/01/24 06:16:22;;;;;;;;;0.00;0.00;;;;;13.81;99.13;102015.16;5136212;27;45360;-85
2024/01/24 06:18:47;;;;;;;;;1.00;0.00;;;;;13.79;98.78;102012.53;5116062;27;45455;-85
2024/01/24 06:21:13;;;;;;;;;0.00;0.00;;;;;13.81;98.68;102018.69;5125618;27;46801;-86
2024/01/24 06:23:38;;;;;;;;;0.00;0.00;;;;;13.88;99.40;102029.97;5126629;27;45495;-83
2024/01/24 06:26:04;;;;;;;;;0.00;0.00;;;;;13.88;98.75;102036.19;5118092;27;45347;-85
2024/01/24 06:28:29;;;;;;;;;0.33;0.33;;;;;13.77;100.00;102029.59;5118145;27;45481;-84
2024/01/24 06:30:55;;;;;;;;;0.00;0.00;;;;;13.76;100.00;102033.19;5124760;27;51298;-85
2024/01/24 06:33:21;;;;;;;;;1.33;1.33;;;;;13.70;100.00;102022.81;5119946;27;53970;-85
2024/01/24 06:35:47;;;;;;;;;0.00;0.00;;;;;13.80;100.00;102045.47;5127364;27;45468;-87
2024/01/24 06:38:13;;;;;;;;;0.00;0.00;;;;;13.77;100.00;102037.59;5141256;27;44896;-86
2024/01/24 06:40:39;;;;;;;;;0.00;0.00;;;;;13.87;100.00;102061.19;5133941;27;45549;-87
2024/01/24 06:43:04;;;;;;;;;1.33;1.00;;;;;13.90;99.90;102057.50;5134698;27;45711;-84
2024/01/24 06:45:30;;;;;;;;;1.00;1.00;;;;;13.74;99.58;102022.59;5139860;27;45831;-85
2024/01/24 06:47:55;;;;;;;;;0.00;0.00;;;;;13.96;99.49;102061.72;5123463;27;45389;-83
2024/01/24 06:50:20;;;;;;;;;1.00;1.00;;;;;13.87;99.53;102061.19;5119223;27;45737;-85
2024/01/24 06:52:46;;;;;;;;;1.00;1.00;;;;;13.88;99.01;102067.41;5135956;27;45448;-85
2024/01/24 06:55:13;;;;;;;;;0.00;0.00;;;;;13.87;98.91;102073.69;5120067;27;45808;-84
2024/01/24 06:57:39;;;;;;;;;1.00;1.00;;;;;13.94;97.43;102074.28;5126411;27;45370;-80
2024/01/24 07:00:05;;;;;;;;;0.00;0.00;;;;;13.79;95.61;102054.44;5132463;27;46183;-82
2024/01/24 07:02:30;;;;;;;;;0.33;0.33;;;;;13.79;94.17;102070.50;5124514;27;45538;-84
2024/01/24 07:04:56;;;;;;;;;0.00;0.00;;;;;13.76;93.93;102071.50;5137325;27;45430;-83
2024/01/24 07:07:21;;;;;;;;;0.00;0.00;;;;;13.77;93.63;102075.03;5138011;27;45427;-80
2024/01/24 07:09:47;;;;;;;;;0.67;0.67;;;;;13.73;93.93;102095.72;5131512;27;46081;-86
2024/01/24 07:12:13;;;;;;;;;0.00;0.00;;;;;13.69;94.15;102079.91;5140718;27;45313;-82
2024/01/24 07:14:39;;;;;;;;;0.00;0.00;;;;;13.52;93.77;102056.56;5120582;27;45361;-83
2024/01/24 07:17:05;;;;;;;;;0.00;0.00;;;;;13.70;93.40;102086.97;5103606;27;45541;-84
2024/01/24 07:19:30;;;;;;;;;1.00;1.00;;;;;13.66;94.11;102078.19;5130261;27;46252;-81
2024/01/24 07:21:55;;;;;;;;;0.33;0.33;;;;;13.67;93.32;102081.75;5126818;27;45456;-83
2024/01/24 07:24:21;;;;;;;;;0.00;0.00;;;;;13.69;93.42;102077.22;5123171;27;45345;-85
2024/01/24 07:26:46;;;;;;;;;0.00;0.00;;;;;13.81;93.39;102090.03;5131857;27;45221;-85
2024/01/24 07:29:11;;;;;;;;;0.00;0.00;;;;;13.73;93.16;102093.03;5129287;27;63410;-88
2024/01/24 07:31:38;;;;;;;;;4.33;0.00;;;;;13.64;91.88;102080.09;5123846;27;45384;-88
2024/01/24 07:34:03;;;;;;;;;0.00;0.00;;;;;13.46;91.66;102068.41;5117519;27;45324;-89
2024/01/24 07:36:28;;;;;;;;;3.00;1.67;;;;;13.26;91.27;102026.53;5126350;27;45588;-89
2024/01/24 07:38:54;;;;;;;;;1.00;0.00;;;;;13.49;91.23;102092.34;5126486;27;45437;-87
2024/01/24 07:41:19;;;;;;;;;1.00;1.00;;;;;13.27;90.17;102072.81;5132442;27;45358;-87
2024/01/24 07:43:44;;;;;;;;;2.00;0.00;;;;;13.38;88.98;102102.63;5113092;27;45366;-85
2024/01/24 07:46:10;;;;;;;;;2.00;0.00;;;;;13.22;88.27;102109.56;5125432;27;45448;-84
2024/01/24 07:48:35;;;;;;;;;1.00;0.00;;;;;13.30;88.03;102127.97;5136238;27;45379;-84
2024/01/24 07:51:01;;;;;;;;;5.00;1.00;;;;;13.13;88.57;102107.25;5128295;27;45526;-82
2024/01/24 07:53:27;;;;;;;;;2.00;1.00;;;;;13.22;88.13;102122.94;5135808;27;45266;-82
2024/01/24 07:55:53;;;;;;;;;0.00;0.00;;;;;13.08;87.55;102114.59;5128158;27;45367;-88
2024/01/24 07:58:18;;;;;;;;;1.00;1.00;;;;;13.21;87.93;102153.25;5130112;27;45538;-83
2024/01/24 08:00:43;;;;;;;;;2.33;1.00;;;;;13.05;87.40;102130.75;5135749;27;45426;-82
2024/01/24 08:03:09;;;;;;;;;1.67;0.00;;;;;13.15;86.66;102153.47;5126300;27;45473;-84
2024/01/24 08:05:35;;;;;;;;;0.00;0.00;;;;;13.20;86.79;102167.56;5129383;27;45490;-83
2024/01/24 08:08:01;;;;;;;;;4.00;1.00;;;;;13.18;87.00;102156.03;5133153;27;46114;-83
2024/01/24 08:10:27;;;;;;;;;2.00;0.67;;;;;13.07;86.59;102143.13;5122204;27;45225;-84
2024/01/24 08:12:54;;;;;;;;;1.33;0.33;;;;;13.15;86.21;102148.13;5134632;27;45341;-84
2024/01/24 08:15:20;;;;;;;;;0.00;0.00;;;;;13.19;85.46;102157.78;5123950;27;45575;-90
2024/01/24 08:17:45;;;;;;;;;2.33;1.33;;;;;13.19;85.55;102155.13;5131378;27;45803;-87
2024/01/24 08:20:11;;;;;;;;;0.67;0.67;;;;;13.13;85.27;102140.16;5138400;27;45558;-86
2024/01/24 08:22:37;;;;;;;;;1.00;1.00;;;;;13.26;84.52;102161.94;5133466;27;45437;-89
2024/01/24 08:25:03;;;;;;;;;2.00;1.00;;;;;13.27;84.63;102185.03;5122903;27;45480;-82
2024/01/24 08:27:29;;;;;;;;;2.00;0.67;;;;;13.33;83.34;102183.94;5139456;27;46056;-83
2024/01/24 08:29:56;;;;;;;;;1.00;1.00;;;;;13.36;82.41;102195.34;5153496;27;45439;-87
2024/01/24 08:32:22;;;;;;;;;1.33;1.00;;;;;13.38;81.54;102185.47;5120332;27;45449;-83
2024/01/24 08:34:47;;;;;;;;;1.00;1.00;;;;;13.45;80.69;102183.41;5133974;27;45316;-87
2024/01/24 08:37:12;;;;;;;;;1.67;1.67;;;;;13.40;80.41;102178.25;5125069;27;46745;-90
2024/01/24 08:39:40;;;;;;;;;2.00;1.00;;;;;13.47;80.58;102186.88;5136107;27;45294;-88
2024/01/24 08:42:06;;;;;;;;;0.67;0.67;;;;;13.49;79.77;102182.34;5116231;27;45542;-91
2024/01/24 08:44:32;;;;;;;;;1.00;1.00;;;;;13.75;79.31;102205.28;5117587;27;44970;-90
2024/01/24 08:46:59;;;;;;;;;0.67;0.67;;;;;13.59;77.93;102170.31;5135083;27;45219;-90
2024/01/24 08:49:25;;;;;;;;;3.67;2.00;;;;;13.98;76.98;102197.09;5108644;27;45648;-92
2024/01/24 08:51:50;;;;;;;;;2.00;2.00;;;;;13.66;76.35;102146.84;5135167;27;44859;-89
2024/01/24 08:54:16;;;;;;;;;7.00;1.00;;;;;13.92;74.99;102172.41;5125435;27;45643;-87
2024/01/24 08:56:42;;;;;;;;;4.33;3.00;;;;;13.96;75.41;102184.75;5131042;27;46947;-93
2024/01/24 08:59:07;;;;;;;;;3.67;1.00;;;;;13.62;75.36;102143.44;5142906;27;45717;-87
2024/01/24 09:01:32;;;;;;;;;6.00;4.67;;;;;13.50;73.85;102136.81;5129881;27;45426;-89
2024/01/24 09:03:58;;;;;;;;;3.33;2.33;;;;;13.68;74.42;102187.78;5128340;27;45345;-89
2024/01/24 09:06:25;;;;;;;;;3.33;3.00;;;;;13.82;74.32;102206.75;5136420;27;45468;-90
2024/01/24 09:08:52;;;;;;;;;9.67;2.33;;;;;13.74;73.50;102192.84;5123463;27;45638;-88
2024/01/24 09:11:21;;;;;;;;;3.67;2.67;;;;;13.89;74.37;102226.94;5141682;27;44823;-89
2024/01/24 09:13:48;;;;;;;;;4.33;3.00;;;;;13.86;72.81;102219.03;5151651;27;45292;-90
2024/01/24 09:16:15;;;;;;;;;5.00;4.00;;;;;13.52;72.64;102164.34;5141499;27;45283;-92
2024/01/24 09:18:42;;;;;;;;;3.00;3.00;;;;;13.87;72.51;102223.44;5126393;27;45736;-89
2024/01/24 09:21:07;;;;;;;;;10.67;4.33;;;;;13.83;71.99;102216.50;5125005;27;45332;-91
2024/01/24 09:23:33;;;;;;;;;5.67;4.00;;;;;13.86;71.68;102221.72;5138078;27;45300;-90
2024/01/24 09:25:58;;;;;;;;;6.00;3.00;;;;;13.83;70.61;102216.50;5131751;27;47184;-90
2024/01/24 09:28:24;;;;;;;;;2.67;2.67;;;;;14.05;71.55;102265.44;5145173;27;45367;-91
2024/01/24 09:30:49;;;;;;;;;4.00;3.00;;;;;14.07;70.79;102274.28;5123373;27;45425;-90
2024/01/24 09:33:16;;;;;;;;;3.00;2.33;;;;;14.05;69.79;102272.59;5128282;27;45266;-90
2024/01/24 09:35:41;;;;;;;;;3.00;2.67;;;;;13.84;69.80;102223.59;5130805;27;45419;-87
2024/01/24 09:38:06;;;;;;;;;5.67;2.33;;;;;13.99;69.46;102230.94;5127587;27;45419;-86
2024/01/24 09:41:00;;;;;;;;;9.00;6.33;;;;;14.05;69.33;102244.03;5153284;27;44861;-91
2024/01/24 09:43:31;;;;;;;;;4.00;4.00;;;;;14.06;68.84;102258.28;5085952;28;45524;-93
2024/01/24 09:46:03;;;;;;;;;5.00;4.00;;;;;13.76;67.97;102213.22;5084156;28;47000;-90
2024/01/24 09:48:33;;;;;;;;;4.00;4.00;;;;;13.84;68.60;102239.66;5069444;28;45536;-90
2024/01/24 09:50:59;;;;;;;;;5.00;3.00;;;;;13.79;67.62;102225.59;5067560;28;45837;-91
2024/01/24 09:53:30;;;;;;;;;8.33;3.33;;;;;13.99;67.78;102255.00;5071444;28;45481;-89
2024/01/24 09:55:56;;;;;;;;;6.67;2.00;;;;;14.24;67.29;102286.91;5064493;28;46291;-88
2024/01/24 09:58:21;;;;;;;;;5.33;2.00;;;;;14.17;66.62;102269.38;5062750;28;45538;-89
2024/01/24 10:00:47;;;;;;;;;5.33;4.00;;;;;14.24;67.47;102281.56;5062255;28;45406;-90
2024/01/24 10:03:13;;;;;;;;;3.67;2.33;;;;;14.19;67.11;102267.50;5069586;28;45425;-89
2024/01/24 10:05:40;;;;;;;;;6.00;2.33;;;;;14.35;66.07;102278.41;5073895;28;48600;-86
2024/01/24 10:08:06;;;;;;;;;6.00;2.67;;;;;14.46;65.52;102294.88;5073769;28;44930;-91
2024/01/24 10:10:32;;;;;;;;;2.33;2.33;;;;;14.23;65.93;102252.19;5086325;28;44827;-93
2024/01/24 10:12:57;;;;;;;;;5.00;3.00;;;;;14.53;65.69;102304.38;5063277;28;44893;-91
2024/01/24 10:15:24;;;;;;;;;3.67;3.00;;;;;14.35;65.32;102289.13;5135928;27;46478;-90
2024/01/24 10:17:49;;;;;;;;;7.00;4.00;;;;;14.47;65.11;102287.72;5134842;27;45120;-92
2024/01/24 10:20:14;;;;;;;;;3.33;3.00;;;;;14.54;64.88;102273.97;5138135;27;44896;-88
2024/01/24 10:22:42;;;;;;;;;5.00;2.00;;;;;14.63;64.58;102278.03;5129181;27;45379;-90
2024/01/24 10:25:10;;;;;;;;;7.00;5.00;;;;;15.10;64.49;102320.47;5120833;27;47175;-89
2024/01/24 10:27:41;;;;;;;;;5.00;5.00;;;;;15.07;63.77;102313.44;5143646;27;45503;-93
2024/01/24 10:30:11;;;;;;;;;7.33;3.00;;;;;15.23;63.57;102309.09;5113584;27;45454;-92
2024/01/24 10:32:45;;;;;;;;;7.00;4.00;;;;;15.34;63.38;102304.06;5146877;27;45357;-95
2024/01/24 10:35:18;;;;;;;;;4.67;4.00;;;;;15.46;62.41;102302.63;5145430;27;45234;-92
2024/01/24 10:37:44;;;;;;;;;6.00;5.33;;;;;15.58;61.47;102295.78;5104436;27;45404;-89
2024/01/24 10:40:43;;;;;;;;;;;;;;;;;;;;;
2024/01/24 10:43:45;;;;;;;;;;;;;;;;;;;;;
2024/01/24 10:46:30;;;;;;;;;5.33;3.00;;;;;16.07;60.44;102326.38;5143198;27;74287;-91
2024/01/24 10:49:01;;;;;;;;;5.33;3.00;;;;;15.97;60.17;102313.50;5139800;27;44774;-92
2024/01/24 10:51:29;;;;;;;;;6.00;4.00;;;;;16.09;59.58;102304.84;5135202;27;45475;-91
2024/01/24 10:53:55;;;;;;;;;8.00;4.67;;;;;16.52;59.07;102349.09;5115291;27;45377;-93
2024/01/24 10:56:22;;;;;;;;;7.67;3.67;;;;;16.41;57.11;102317.44;5145000;27;46200;-88
2024/01/24 10:58:48;;;;;;;;;6.67;3.00;;;;;16.41;57.76;102304.03;5141864;27;44794;-92
2024/01/24 11:01:14;;;;;;;;;5.33;3.00;;;;;16.73;57.30;102331.00;5135726;27;45507;-93
2024/01/24 11:03:40;;;;;;;;;3.67;2.67;;;;;16.71;56.53;102290.78;5123777;27;45407;-90
2024/01/24 11:06:15;;;;;;;;;6.67;3.67;;;;;16.95;55.22;102304.69;5119290;27;46888;-91
2024/01/24 11:08:51;;;;;;;;;3.00;2.00;;;;;16.76;53.96;102271.72;5126525;27;44834;-86
2024/01/24 11:11:20;;;;;;;;;5.00;4.00;;;;;16.88;54.46;102319.41;5140483;27;45568;-88
2024/01/24 11:13:47;;;;;;;;;3.67;3.67;;;;;16.78;54.99;102304.72;5143122;27;45612;-88
2024/01/24 11:16:39;;;;;;;;;8.00;5.33;;;;;16.78;54.40;102251.84;5137204;27;45352;-89
2024/01/24 11:19:28;;;;;;;;;18.00;12.33;;;;;17.18;54.11;102263.03;5120771;27;45053;-89
2024/01/24 11:22:08;;;;;;;;;11.67;7.00;;;;;17.44;53.05;102274.13;5149211;27;44794;-89